sensor_id;sensor_type;location;lat;lon;timestamp;P1;durP1;ratioP1;P2;durP2;ratioP2
61104;SDS011;46987;32.638;-115.438;2023-03-21T00:00:26;4.03;;;0.80;;
61104;SDS011;46987;32.638;-115.438;2023-03-21T00:02:53;6.30;;;1.00;;
61104;SDS011;46987;32.638;-115.438;2023-03-21T00:05:21;4.53;;;1.00;;
61104;SDS011;46987;32.638;-115.438;2023-03-21T00:07:48;6.78;;;1.33;;
61104;SDS011;46987;32.638;-115.438;2023-03-21T00:10:14;8.88;;;1.50;;
61104;SDS011;46987;32.638;-115.438;2023-03-21T00:12:41;7.72;;;1.33;;
61104;SDS011;46987;32.638;-115.438;2023-03-21T00:15:08;6.93;;;1.17;;
61104;SDS011;46987;32.638;-115.438;2023-03-21T00:17:35;7.00;;;1.40;;
61104;SDS011;46987;32.638;-115.438;2023-03-21T00:20:05;4.90;;;0.80;;
61104;SDS011;46987;32.638;-115.438;2023-03-21T00:22:41;4.22;;;0.80;;
61104;SDS011;46987;32.638;-115.438;2023-03-21T00:25:08;6.55;;;1.13;;
61104;SDS011;46987;32.638;-115.438;2023-03-21T00:27:36;7.28;;;1.20;;
61104;SDS011;46987;32.638;-115.438;2023-03-21T00:30:02;6.20;;;0.98;;
61104;SDS011;46987;32.638;-115.438;2023-03-21T00:32:29;4.57;;;1.20;;
61104;SDS011;46987;32.638;-115.438;2023-03-21T00:35:01;3.83;;;0.70;;
61104;SDS011;46987;32.638;-115.438;2023-03-21T00:37:28;5.82;;;0.80;;
61104;SDS011;46987;32.638;-115.438;2023-03-21T00:39:56;5.20;;;1.38;;
61104;SDS011;46987;32.638;-115.438;2023-03-21T00:42:22;4.75;;;1.20;;
61104;SDS011;46987;32.638;-115.438;2023-03-21T00:44:49;3.47;;;1.17;;
61104;SDS011;46987;32.638;-115.438;2023-03-21T00:47:16;2.60;;;0.68;;
61104;SDS011;46987;32.638;-115.438;2023-03-21T00:49:42;3.25;;;0.95;;
61104;SDS011;46987;32.638;-115.438;2023-03-21T00:52:09;5.15;;;1.02;;
61104;SDS011;46987;32.638;-115.438;2023-03-21T00:54:36;6.78;;;1.20;;
61104;SDS011;46987;32.638;-115.438;2023-03-21T00:57:04;6.35;;;1.27;;
61104;SDS011;46987;32.638;-115.438;2023-03-21T00:59:31;6.50;;;1.42;;
61104;SDS011;46987;32.638;-115.438;2023-03-21T01:01:58;6.22;;;1.50;;
61104;SDS011;46987;32.638;-115.438;2023-03-21T01:04:27;5.47;;;1.38;;
61104;SDS011;46987;32.638;-115.438;2023-03-21T01:06:54;3.38;;;1.38;;
61104;SDS011;46987;32.638;-115.438;2023-03-21T01:09:21;4.25;;;1.30;;
61104;SDS011;46987;32.638;-115.438;2023-03-21T01:11:48;6.13;;;1.17;;
61104;SDS011;46987;32.638;-115.438;2023-03-21T01:14:17;6.75;;;1.10;;
61104;SDS011;46987;32.638;-115.438;2023-03-21T01:16:44;4.20;;;1.58;;
61104;SDS011;46987;32.638;-115.438;2023-03-21T01:19:11;5.60;;;1.00;;
61104;SDS011;46987;32.638;-115.438;2023-03-21T01:21:38;5.53;;;1.20;;
61104;SDS011;46987;32.638;-115.438;2023-03-21T01:24:05;2.78;;;1.33;;
61104;SDS011;46987;32.638;-115.438;2023-03-21T01:26:32;2.83;;;1.08;;
61104;SDS011;46987;32.638;-115.438;2023-03-21T01:28:59;8.50;;;1.30;;
61104;SDS011;46987;32.638;-115.438;2023-03-21T01:31:27;6.38;;;1.42;;
61104;SDS011;46987;32.638;-115.438;2023-03-21T01:33:54;4.95;;;1.40;;
61104;SDS011;46987;32.638;-115.438;2023-03-21T01:36:21;3.95;;;1.10;;
61104;SDS011;46987;32.638;-115.438;2023-03-21T01:38:49;5.15;;;0.93;;
61104;SDS011;46987;32.638;-115.438;2023-03-21T01:41:19;3.83;;;0.82;;
61104;SDS011;46987;32.638;-115.438;2023-03-21T01:43:47;3.25;;;0.80;;
61104;SDS011;46987;32.638;-115.438;2023-03-21T01:49:05;3.33;;;1.13;;
61104;SDS011;46987;32.638;-115.438;2023-03-21T01:51:36;5.32;;;1.25;;
61104;SDS011;46987;32.638;-115.438;2023-03-21T01:54:03;3.30;;;0.95;;
61104;SDS011;46987;32.638;-115.438;2023-03-21T01:56:32;3.83;;;0.80;;
61104;SDS011;46987;32.638;-115.438;2023-03-21T01:59:04;4.72;;;1.20;;
61104;SDS011;46987;32.638;-115.438;2023-03-21T02:01:51;4.15;;;1.48;;
61104;SDS011;46987;32.638;-115.438;2023-03-21T02:04:25;3.47;;;0.90;;
61104;SDS011;46987;32.638;-115.438;2023-03-21T02:07:19;2.20;;;0.90;;
61104;SDS011;46987;32.638;-115.438;2023-03-21T02:09:59;4.28;;;0.90;;
61104;SDS011;46987;32.638;-115.438;2023-03-21T02:12:26;4.45;;;0.77;;
61104;SDS011;46987;32.638;-115.438;2023-03-21T02:14:53;3.63;;;0.90;;
61104;SDS011;46987;32.638;-115.438;2023-03-21T02:17:27;4.53;;;1.08;;
61104;SDS011;46987;32.638;-115.438;2023-03-21T02:20:12;3.88;;;1.10;;
61104;SDS011;46987;32.638;-115.438;2023-03-21T02:23:12;3.25;;;1.15;;
61104;SDS011;46987;32.638;-115.438;2023-03-21T02:25:54;3.78;;;0.70;;
61104;SDS011;46987;32.638;-115.438;2023-03-21T02:28:25;6.05;;;1.52;;
61104;SDS011;46987;32.638;-115.438;2023-03-21T02:30:59;4.53;;;0.93;;
61104;SDS011;46987;32.638;-115.438;2023-03-21T02:36:25;5.13;;;1.38;;
61104;SDS011;46987;32.638;-115.438;2023-03-21T02:38:59;3.22;;;0.98;;
61104;SDS011;46987;32.638;-115.438;2023-03-21T02:41:29;3.83;;;0.90;;
61104;SDS011;46987;32.638;-115.438;2023-03-21T02:43:59;6.63;;;1.20;;
61104;SDS011;46987;32.638;-115.438;2023-03-21T02:46:29;4.28;;;1.27;;
61104;SDS011;46987;32.638;-115.438;2023-03-21T02:49:01;3.08;;;1.02;;
61104;SDS011;46987;32.638;-115.438;2023-03-21T02:51:29;6.30;;;1.45;;
61104;SDS011;46987;32.638;-115.438;2023-03-21T02:53:57;5.05;;;1.35;;
61104;SDS011;46987;32.638;-115.438;2023-03-21T02:56:27;5.03;;;1.13;;
61104;SDS011;46987;32.638;-115.438;2023-03-21T02:58:56;5.22;;;1.40;;
61104;SDS011;46987;32.638;-115.438;2023-03-21T03:01:24;4.70;;;1.13;;
61104;SDS011;46987;32.638;-115.438;2023-03-21T03:03:52;5.30;;;1.30;;
61104;SDS011;46987;32.638;-115.438;2023-03-21T03:06:19;3.75;;;1.00;;
61104;SDS011;46987;32.638;-115.438;2023-03-21T03:08:52;4.53;;;1.02;;
61104;SDS011;46987;32.638;-115.438;2023-03-21T03:11:24;5.30;;;0.73;;
61104;SDS011;46987;32.638;-115.438;2023-03-21T03:16:41;4.05;;;0.90;;
61104;SDS011;46987;32.638;-115.438;2023-03-21T03:19:12;3.20;;;0.70;;
61104;SDS011;46987;32.638;-115.438;2023-03-21T03:21:41;5.35;;;0.80;;
61104;SDS011;46987;32.638;-115.438;2023-03-21T03:24:10;6.47;;;1.00;;
61104;SDS011;46987;32.638;-115.438;2023-03-21T03:26:37;5.97;;;0.73;;
61104;SDS011;46987;32.638;-115.438;2023-03-21T03:29:07;2.97;;;0.55;;
61104;SDS011;46987;32.638;-115.438;2023-03-21T03:31:35;2.38;;;0.95;;
61104;SDS011;46987;32.638;-115.438;2023-03-21T03:34:05;4.72;;;1.58;;
61104;SDS011;46987;32.638;-115.438;2023-03-21T03:36:38;5.70;;;1.23;;
61104;SDS011;46987;32.638;-115.438;2023-03-21T03:39:12;3.00;;;1.00;;
61104;SDS011;46987;32.638;-115.438;2023-03-21T03:41:44;3.05;;;0.75;;
61104;SDS011;46987;32.638;-115.438;2023-03-21T03:44:12;2.42;;;0.70;;
61104;SDS011;46987;32.638;-115.438;2023-03-21T03:46:46;1.38;;;0.70;;
61104;SDS011;46987;32.638;-115.438;2023-03-21T03:49:16;2.85;;;1.00;;
61104;SDS011;46987;32.638;-115.438;2023-03-21T03:51:47;3.35;;;0.73;;
61104;SDS011;46987;32.638;-115.438;2023-03-21T03:54:25;3.47;;;1.35;;
61104;SDS011;46987;32.638;-115.438;2023-03-21T03:56:52;2.50;;;0.77;;
61104;SDS011;46987;32.638;-115.438;2023-03-21T03:59:20;2.70;;;0.63;;
61104;SDS011;46987;32.638;-115.438;2023-03-21T04:02:08;3.78;;;0.80;;
61104;SDS011;46987;32.638;-115.438;2023-03-21T04:04:37;4.57;;;1.20;;
61104;SDS011;46987;32.638;-115.438;2023-03-21T04:07:07;2.65;;;0.88;;
61104;SDS011;46987;32.638;-115.438;2023-03-21T04:09:36;5.07;;;0.82;;
61104;SDS011;46987;32.638;-115.438;2023-03-21T04:12:03;2.30;;;0.80;;
61104;SDS011;46987;32.638;-115.438;2023-03-21T04:14:30;2.40;;;0.80;;
61104;SDS011;46987;32.638;-115.438;2023-03-21T04:16:56;2.47;;;0.80;;
61104;SDS011;46987;32.638;-115.438;2023-03-21T04:19:23;2.60;;;0.70;;
61104;SDS011;46987;32.638;-115.438;2023-03-21T04:21:51;2.85;;;0.60;;
61104;SDS011;46987;32.638;-115.438;2023-03-21T04:24:18;2.35;;;0.85;;
61104;SDS011;46987;32.638;-115.438;2023-03-21T04:26:48;3.40;;;0.88;;
61104;SDS011;46987;32.638;-115.438;2023-03-21T04:29:30;4.20;;;2.10;;
61104;SDS011;46987;32.638;-115.438;2023-03-21T04:32:25;2.25;;;0.80;;
61104;SDS011;46987;32.638;-115.438;2023-03-21T04:35:00;2.83;;;1.00;;
61104;SDS011;46987;32.638;-115.438;2023-03-21T04:37:29;4.28;;;0.70;;
61104;SDS011;46987;32.638;-115.438;2023-03-21T04:39:59;3.58;;;0.90;;
61104;SDS011;46987;32.638;-115.438;2023-03-21T04:42:29;3.05;;;0.80;;
61104;SDS011;46987;32.638;-115.438;2023-03-21T04:44:55;4.32;;;1.30;;
61104;SDS011;46987;32.638;-115.438;2023-03-21T04:47:23;6.05;;;1.48;;
61104;SDS011;46987;32.638;-115.438;2023-03-21T04:49:49;3.60;;;0.93;;
61104;SDS011;46987;32.638;-115.438;2023-03-21T04:52:16;2.67;;;1.00;;
61104;SDS011;46987;32.638;-115.438;2023-03-21T04:54:45;3.05;;;0.82;;
61104;SDS011;46987;32.638;-115.438;2023-03-21T04:57:12;3.03;;;0.90;;
61104;SDS011;46987;32.638;-115.438;2023-03-21T04:59:39;1.92;;;0.60;;
61104;SDS011;46987;32.638;-115.438;2023-03-21T05:02:06;3.72;;;0.90;;
61104;SDS011;46987;32.638;-115.438;2023-03-21T05:04:32;2.22;;;0.70;;
61104;SDS011;46987;32.638;-115.438;2023-03-21T05:06:59;3.03;;;0.80;;
61104;SDS011;46987;32.638;-115.438;2023-03-21T05:09:26;3.70;;;0.80;;
61104;SDS011;46987;32.638;-115.438;2023-03-21T05:11:55;2.95;;;0.80;;
61104;SDS011;46987;32.638;-115.438;2023-03-21T05:14:22;1.63;;;0.65;;
61104;SDS011;46987;32.638;-115.438;2023-03-21T05:16:49;1.75;;;0.88;;
61104;SDS011;46987;32.638;-115.438;2023-03-21T05:19:22;4.80;;;0.75;;
61104;SDS011;46987;32.638;-115.438;2023-03-21T05:21:49;4.10;;;0.65;;
61104;SDS011;46987;32.638;-115.438;2023-03-21T05:24:20;1.23;;;0.57;;
61104;SDS011;46987;32.638;-115.438;2023-03-21T05:26:48;1.27;;;0.77;;
61104;SDS011;46987;32.638;-115.438;2023-03-21T05:29:42;3.10;;;0.90;;
61104;SDS011;46987;32.638;-115.438;2023-03-21T05:32:09;3.25;;;0.52;;
61104;SDS011;46987;32.638;-115.438;2023-03-21T05:34:36;2.47;;;0.90;;
61104;SDS011;46987;32.638;-115.438;2023-03-21T05:37:03;1.20;;;0.47;;
61104;SDS011;46987;32.638;-115.438;2023-03-21T05:39:50;3.80;;;1.73;;
61104;SDS011;46987;32.638;-115.438;2023-03-21T05:42:25;1.05;;;0.60;;
61104;SDS011;46987;32.638;-115.438;2023-03-21T05:44:54;2.03;;;0.75;;
61104;SDS011;46987;32.638;-115.438;2023-03-21T05:47:26;3.25;;;0.50;;
61104;SDS011;46987;32.638;-115.438;2023-03-21T05:49:55;1.85;;;0.70;;
61104;SDS011;46987;32.638;-115.438;2023-03-21T05:52:22;3.78;;;0.70;;
61104;SDS011;46987;32.638;-115.438;2023-03-21T05:54:49;4.90;;;1.00;;
61104;SDS011;46987;32.638;-115.438;2023-03-21T05:57:16;2.75;;;0.80;;
61104;SDS011;46987;32.638;-115.438;2023-03-21T05:59:58;3.28;;;0.85;;
61104;SDS011;46987;32.638;-115.438;2023-03-21T06:02:26;4.07;;;0.68;;
61104;SDS011;46987;32.638;-115.438;2023-03-21T06:04:54;3.63;;;0.70;;
61104;SDS011;46987;32.638;-115.438;2023-03-21T06:07:21;3.28;;;0.80;;
61104;SDS011;46987;32.638;-115.438;2023-03-21T06:09:49;3.95;;;0.90;;
61104;SDS011;46987;32.638;-115.438;2023-03-21T06:12:16;4.10;;;0.70;;
61104;SDS011;46987;32.638;-115.438;2023-03-21T06:14:59;2.80;;;0.85;;
61104;SDS011;46987;32.638;-115.438;2023-03-21T06:17:33;2.85;;;0.88;;
61104;SDS011;46987;32.638;-115.438;2023-03-21T06:20:05;3.58;;;0.70;;
61104;SDS011;46987;32.638;-115.438;2023-03-21T06:22:38;4.82;;;1.05;;
61104;SDS011;46987;32.638;-115.438;2023-03-21T06:25:06;6.78;;;0.70;;
61104;SDS011;46987;32.638;-115.438;2023-03-21T06:27:33;5.22;;;0.75;;
61104;SDS011;46987;32.638;-115.438;2023-03-21T06:30:03;3.65;;;0.73;;
61104;SDS011;46987;32.638;-115.438;2023-03-21T06:32:35;1.90;;;0.70;;
61104;SDS011;46987;32.638;-115.438;2023-03-21T06:35:08;4.10;;;0.65;;
61104;SDS011;46987;32.638;-115.438;2023-03-21T06:37:36;2.10;;;0.52;;
61104;SDS011;46987;32.638;-115.438;2023-03-21T06:40:04;3.50;;;0.55;;
61104;SDS011;46987;32.638;-115.438;2023-03-21T06:42:34;3.28;;;0.55;;
61104;SDS011;46987;32.638;-115.438;2023-03-21T06:45:10;4.65;;;0.88;;
61104;SDS011;46987;32.638;-115.438;2023-03-21T06:47:37;2.08;;;0.50;;
61104;SDS011;46987;32.638;-115.438;2023-03-21T06:50:08;2.47;;;0.60;;
61104;SDS011;46987;32.638;-115.438;2023-03-21T06:52:40;5.55;;;0.50;;
61104;SDS011;46987;32.638;-115.438;2023-03-21T06:55:08;5.00;;;0.82;;
61104;SDS011;46987;32.638;-115.438;2023-03-21T06:57:35;6.28;;;0.90;;
61104;SDS011;46987;32.638;-115.438;2023-03-21T07:00:04;7.93;;;1.17;;
61104;SDS011;46987;32.638;-115.438;2023-03-21T07:02:33;4.00;;;0.77;;
61104;SDS011;46987;32.638;-115.438;2023-03-21T07:05:05;5.18;;;0.90;;
61104;SDS011;46987;32.638;-115.438;2023-03-21T07:07:32;3.15;;;0.80;;
61104;SDS011;46987;32.638;-115.438;2023-03-21T07:09:59;6.28;;;1.10;;
61104;SDS011;46987;32.638;-115.438;2023-03-21T07:12:29;4.53;;;0.80;;
61104;SDS011;46987;32.638;-115.438;2023-03-21T07:15:29;1.90;;;0.52;;
61104;SDS011;46987;32.638;-115.438;2023-03-21T07:17:57;2.92;;;0.50;;
61104;SDS011;46987;32.638;-115.438;2023-03-21T07:20:23;5.75;;;1.15;;
61104;SDS011;46987;32.638;-115.438;2023-03-21T07:22:52;4.32;;;0.85;;
61104;SDS011;46987;32.638;-115.438;2023-03-21T07:25:18;3.50;;;0.90;;
61104;SDS011;46987;32.638;-115.438;2023-03-21T07:27:46;2.22;;;0.40;;
61104;SDS011;46987;32.638;-115.438;2023-03-21T07:30:12;2.35;;;0.52;;
61104;SDS011;46987;32.638;-115.438;2023-03-21T07:32:39;3.13;;;0.57;;
61104;SDS011;46987;32.638;-115.438;2023-03-21T07:35:09;2.67;;;0.70;;
61104;SDS011;46987;32.638;-115.438;2023-03-21T07:37:36;3.75;;;0.95;;
61104;SDS011;46987;32.638;-115.438;2023-03-21T07:40:03;2.97;;;0.60;;
61104;SDS011;46987;32.638;-115.438;2023-03-21T07:42:35;3.17;;;0.70;;
61104;SDS011;46987;32.638;-115.438;2023-03-21T07:45:02;2.42;;;0.82;;
61104;SDS011;46987;32.638;-115.438;2023-03-21T07:47:33;2.75;;;0.57;;
61104;SDS011;46987;32.638;-115.438;2023-03-21T07:49:59;8.18;;;0.80;;
61104;SDS011;46987;32.638;-115.438;2023-03-21T07:52:29;3.10;;;0.88;;
61104;SDS011;46987;32.638;-115.438;2023-03-21T07:54:55;3.60;;;0.88;;
61104;SDS011;46987;32.638;-115.438;2023-03-21T07:57:22;2.15;;;0.70;;
61104;SDS011;46987;32.638;-115.438;2023-03-21T07:59:49;6.25;;;0.82;;
61104;SDS011;46987;32.638;-115.438;2023-03-21T08:02:16;1.75;;;0.68;;
61104;SDS011;46987;32.638;-115.438;2023-03-21T08:04:43;2.58;;;0.93;;
61104;SDS011;46987;32.638;-115.438;2023-03-21T08:07:12;3.47;;;0.77;;
61104;SDS011;46987;32.638;-115.438;2023-03-21T08:09:41;3.58;;;0.82;;
61104;SDS011;46987;32.638;-115.438;2023-03-21T08:12:08;1.67;;;0.50;;
61104;SDS011;46987;32.638;-115.438;2023-03-21T08:14:34;3.47;;;0.70;;
61104;SDS011;46987;32.638;-115.438;2023-03-21T08:17:01;2.38;;;0.77;;
61104;SDS011;46987;32.638;-115.438;2023-03-21T08:19:28;1.90;;;0.50;;
61104;SDS011;46987;32.638;-115.438;2023-03-21T08:21:54;1.77;;;0.80;;
61104;SDS011;46987;32.638;-115.438;2023-03-21T08:24:24;1.42;;;0.70;;
61104;SDS011;46987;32.638;-115.438;2023-03-21T08:26:53;4.03;;;0.60;;
61104;SDS011;46987;32.638;-115.438;2023-03-21T08:29:19;1.92;;;0.90;;
61104;SDS011;46987;32.638;-115.438;2023-03-21T08:31:46;2.33;;;0.82;;
61104;SDS011;46987;32.638;-115.438;2023-03-21T08:34:13;0.90;;;0.40;;
61104;SDS011;46987;32.638;-115.438;2023-03-21T08:36:40;3.63;;;0.75;;
61104;SDS011;46987;32.638;-115.438;2023-03-21T08:39:06;1.92;;;0.50;;
61104;SDS011;46987;32.638;-115.438;2023-03-21T08:41:34;3.65;;;0.73;;
61104;SDS011;46987;32.638;-115.438;2023-03-21T08:44:03;4.13;;;0.70;;
61104;SDS011;46987;32.638;-115.438;2023-03-21T08:46:29;1.65;;;0.60;;
61104;SDS011;46987;32.638;-115.438;2023-03-21T08:48:56;2.63;;;0.60;;
61104;SDS011;46987;32.638;-115.438;2023-03-21T08:51:22;3.00;;;0.77;;
61104;SDS011;46987;32.638;-115.438;2023-03-21T08:53:49;1.30;;;0.68;;
61104;SDS011;46987;32.638;-115.438;2023-03-21T08:56:18;2.03;;;0.60;;
61104;SDS011;46987;32.638;-115.438;2023-03-21T08:58:45;1.85;;;0.68;;
61104;SDS011;46987;32.638;-115.438;2023-03-21T09:01:14;4.43;;;0.80;;
61104;SDS011;46987;32.638;-115.438;2023-03-21T09:03:40;2.30;;;0.73;;
61104;SDS011;46987;32.638;-115.438;2023-03-21T09:06:07;2.53;;;0.73;;
61104;SDS011;46987;32.638;-115.438;2023-03-21T09:08:36;13.77;;;1.30;;
61104;SDS011;46987;32.638;-115.438;2023-03-21T09:11:02;3.95;;;0.70;;
61104;SDS011;46987;32.638;-115.438;2023-03-21T09:13:29;2.92;;;0.90;;
61104;SDS011;46987;32.638;-115.438;2023-03-21T09:15:56;1.65;;;0.80;;
61104;SDS011;46987;32.638;-115.438;2023-03-21T09:18:27;3.78;;;0.90;;
61104;SDS011;46987;32.638;-115.438;2023-03-21T09:21:10;3.60;;;1.00;;
61104;SDS011;46987;32.638;-115.438;2023-03-21T09:23:38;1.85;;;0.73;;
61104;SDS011;46987;32.638;-115.438;2023-03-21T09:26:05;5.40;;;1.17;;
61104;SDS011;46987;32.638;-115.438;2023-03-21T09:28:31;3.15;;;1.13;;
61104;SDS011;46987;32.638;-115.438;2023-03-21T09:30:58;3.05;;;0.82;;
61104;SDS011;46987;32.638;-115.438;2023-03-21T09:33:29;3.90;;;0.80;;
61104;SDS011;46987;32.638;-115.438;2023-03-21T09:35:56;6.97;;;1.08;;
61104;SDS011;46987;32.638;-115.438;2023-03-21T09:38:25;3.92;;;0.95;;
61104;SDS011;46987;32.638;-115.438;2023-03-21T09:40:58;2.88;;;0.73;;
61104;SDS011;46987;32.638;-115.438;2023-03-21T09:43:34;2.60;;;1.08;;
61104;SDS011;46987;32.638;-115.438;2023-03-21T09:46:03;2.83;;;0.82;;
61104;SDS011;46987;32.638;-115.438;2023-03-21T09:48:36;3.17;;;0.82;;
61104;SDS011;46987;32.638;-115.438;2023-03-21T09:53:33;2.28;;;0.75;;
61104;SDS011;46987;32.638;-115.438;2023-03-21T09:56:01;4.40;;;0.80;;
61104;SDS011;46987;32.638;-115.438;2023-03-21T09:58:29;1.88;;;0.80;;
61104;SDS011;46987;32.638;-115.438;2023-03-21T10:01:00;2.00;;;0.80;;
61104;SDS011;46987;32.638;-115.438;2023-03-21T10:03:30;1.85;;;0.60;;
61104;SDS011;46987;32.638;-115.438;2023-03-21T10:06:02;2.60;;;0.70;;
61104;SDS011;46987;32.638;-115.438;2023-03-21T10:08:32;2.92;;;0.80;;
61104;SDS011;46987;32.638;-115.438;2023-03-21T10:11:02;4.13;;;0.90;;
61104;SDS011;46987;32.638;-115.438;2023-03-21T10:13:32;3.35;;;1.08;;
61104;SDS011;46987;32.638;-115.438;2023-03-21T10:15:59;2.15;;;0.50;;
61104;SDS011;46987;32.638;-115.438;2023-03-21T10:18:28;8.15;;;1.10;;
61104;SDS011;46987;32.638;-115.438;2023-03-21T10:20:55;2.13;;;0.68;;
61104;SDS011;46987;32.638;-115.438;2023-03-21T10:23:23;6.20;;;1.10;;
61104;SDS011;46987;32.638;-115.438;2023-03-21T10:25:51;1.80;;;0.73;;
61104;SDS011;46987;32.638;-115.438;2023-03-21T10:28:20;2.70;;;0.70;;
61104;SDS011;46987;32.638;-115.438;2023-03-21T10:30:48;2.22;;;0.80;;
61104;SDS011;46987;32.638;-115.438;2023-03-21T10:33:16;1.95;;;0.90;;
61104;SDS011;46987;32.638;-115.438;2023-03-21T10:35:47;3.15;;;0.85;;
61104;SDS011;46987;32.638;-115.438;2023-03-21T10:38:15;2.30;;;0.73;;
61104;SDS011;46987;32.638;-115.438;2023-03-21T10:40:44;2.40;;;0.88;;
61104;SDS011;46987;32.638;-115.438;2023-03-21T10:43:15;2.13;;;0.95;;
61104;SDS011;46987;32.638;-115.438;2023-03-21T10:45:43;5.43;;;0.90;;
61104;SDS011;46987;32.638;-115.438;2023-03-21T10:48:10;3.08;;;0.95;;
61104;SDS011;46987;32.638;-115.438;2023-03-21T10:50:36;2.60;;;0.90;;
61104;SDS011;46987;32.638;-115.438;2023-03-21T10:53:05;5.32;;;1.00;;
61104;SDS011;46987;32.638;-115.438;2023-03-21T10:55:39;2.40;;;0.90;;
61104;SDS011;46987;32.638;-115.438;2023-03-21T10:58:09;4.43;;;1.08;;
61104;SDS011;46987;32.638;-115.438;2023-03-21T11:00:43;3.30;;;0.77;;
61104;SDS011;46987;32.638;-115.438;2023-03-21T11:03:16;1.70;;;0.73;;
61104;SDS011;46987;32.638;-115.438;2023-03-21T11:05:46;3.47;;;1.15;;
61104;SDS011;46987;32.638;-115.438;2023-03-21T11:08:14;2.75;;;1.10;;
61104;SDS011;46987;32.638;-115.438;2023-03-21T11:10:49;3.35;;;1.15;;
61104;SDS011;46987;32.638;-115.438;2023-03-21T11:13:18;4.40;;;1.05;;
61104;SDS011;46987;32.638;-115.438;2023-03-21T11:15:50;5.50;;;0.80;;
61104;SDS011;46987;32.638;-115.438;2023-03-21T11:18:18;2.85;;;1.25;;
61104;SDS011;46987;32.638;-115.438;2023-03-21T11:20:48;2.67;;;0.90;;
61104;SDS011;46987;32.638;-115.438;2023-03-21T11:23:15;3.33;;;1.10;;
61104;SDS011;46987;32.638;-115.438;2023-03-21T11:25:41;5.18;;;1.92;;
61104;SDS011;46987;32.638;-115.438;2023-03-21T11:28:10;7.53;;;2.05;;
61104;SDS011;46987;32.638;-115.438;2023-03-21T11:30:39;7.50;;;2.65;;
61104;SDS011;46987;32.638;-115.438;2023-03-21T11:33:14;11.20;;;3.45;;
61104;SDS011;46987;32.638;-115.438;2023-03-21T11:35:44;10.57;;;3.70;;
61104;SDS011;46987;32.638;-115.438;2023-03-21T11:38:23;12.05;;;4.13;;
61104;SDS011;46987;32.638;-115.438;2023-03-21T11:40:51;10.02;;;3.47;;
61104;SDS011;46987;32.638;-115.438;2023-03-21T11:43:26;12.52;;;3.75;;
61104;SDS011;46987;32.638;-115.438;2023-03-21T11:45:59;6.97;;;2.95;;
61104;SDS011;46987;32.638;-115.438;2023-03-21T11:50:54;11.63;;;3.33;;
61104;SDS011;46987;32.638;-115.438;2023-03-21T11:53:25;9.85;;;3.72;;
61104;SDS011;46987;32.638;-115.438;2023-03-21T11:56:04;9.75;;;3.90;;
61104;SDS011;46987;32.638;-115.438;2023-03-21T11:58:35;8.50;;;3.50;;
61104;SDS011;46987;32.638;-115.438;2023-03-21T12:01:06;9.68;;;4.25;;
61104;SDS011;46987;32.638;-115.438;2023-03-21T12:03:45;10.80;;;4.60;;
61104;SDS011;46987;32.638;-115.438;2023-03-21T12:06:14;11.40;;;3.70;;
61104;SDS011;46987;32.638;-115.438;2023-03-21T12:08:44;9.80;;;3.85;;
61104;SDS011;46987;32.638;-115.438;2023-03-21T12:11:14;10.35;;;4.85;;
61104;SDS011;46987;32.638;-115.438;2023-03-21T12:13:46;8.05;;;3.53;;
61104;SDS011;46987;32.638;-115.438;2023-03-21T12:21:44;8.32;;;4.35;;
61104;SDS011;46987;32.638;-115.438;2023-03-21T12:24:14;9.05;;;4.80;;
61104;SDS011;46987;32.638;-115.438;2023-03-21T12:26:45;6.53;;;3.40;;
61104;SDS011;46987;32.638;-115.438;2023-03-21T12:31:58;8.60;;;4.65;;
61104;SDS011;46987;32.638;-115.438;2023-03-21T12:34:34;10.25;;;5.22;;
61104;SDS011;46987;32.638;-115.438;2023-03-21T12:37:10;10.05;;;5.20;;
61104;SDS011;46987;32.638;-115.438;2023-03-21T12:39:40;9.20;;;6.00;;
61104;SDS011;46987;32.638;-115.438;2023-03-21T12:45:04;10.55;;;6.07;;
61104;SDS011;46987;32.638;-115.438;2023-03-21T12:47:35;10.25;;;6.18;;
61104;SDS011;46987;32.638;-115.438;2023-03-21T12:50:03;13.43;;;7.68;;
61104;SDS011;46987;32.638;-115.438;2023-03-21T12:52:32;12.68;;;6.32;;
61104;SDS011;46987;32.638;-115.438;2023-03-21T12:55:08;12.02;;;6.75;;
61104;SDS011;46987;32.638;-115.438;2023-03-21T12:57:39;11.85;;;5.90;;
61104;SDS011;46987;32.638;-115.438;2023-03-21T13:00:11;11.63;;;7.30;;
61104;SDS011;46987;32.638;-115.438;2023-03-21T13:02:40;17.30;;;6.80;;
61104;SDS011;46987;32.638;-115.438;2023-03-21T13:05:12;9.68;;;5.90;;
61104;SDS011;46987;32.638;-115.438;2023-03-21T13:07:46;13.00;;;5.90;;
61104;SDS011;46987;32.638;-115.438;2023-03-21T13:10:14;9.80;;;5.93;;
61104;SDS011;46987;32.638;-115.438;2023-03-21T13:12:45;10.75;;;5.78;;
61104;SDS011;46987;32.638;-115.438;2023-03-21T13:17:56;11.63;;;5.07;;
61104;SDS011;46987;32.638;-115.438;2023-03-21T13:20:24;9.65;;;4.93;;
61104;SDS011;46987;32.638;-115.438;2023-03-21T13:22:54;9.55;;;4.60;;
61104;SDS011;46987;32.638;-115.438;2023-03-21T13:25:20;12.43;;;4.03;;
61104;SDS011;46987;32.638;-115.438;2023-03-21T13:27:51;7.50;;;4.22;;
61104;SDS011;46987;32.638;-115.438;2023-03-21T13:30:18;7.28;;;3.08;;
61104;SDS011;46987;32.638;-115.438;2023-03-21T13:32:46;11.45;;;4.47;;
61104;SDS011;46987;32.638;-115.438;2023-03-21T13:35:14;13.30;;;4.50;;
61104;SDS011;46987;32.638;-115.438;2023-03-21T13:37:42;12.25;;;5.10;;
61104;SDS011;46987;32.638;-115.438;2023-03-21T13:40:20;16.48;;;5.78;;
61104;SDS011;46987;32.638;-115.438;2023-03-21T13:42:50;15.43;;;5.35;;
61104;SDS011;46987;32.638;-115.438;2023-03-21T13:45:22;19.17;;;5.63;;
61104;SDS011;46987;32.638;-115.438;2023-03-21T13:47:52;17.75;;;6.45;;
61104;SDS011;46987;32.638;-115.438;2023-03-21T13:50:27;12.60;;;5.85;;
61104;SDS011;46987;32.638;-115.438;2023-03-21T13:53:10;12.40;;;5.90;;
61104;SDS011;46987;32.638;-115.438;2023-03-21T13:55:45;9.68;;;4.03;;
61104;SDS011;46987;32.638;-115.438;2023-03-21T13:58:21;9.70;;;3.28;;
61104;SDS011;46987;32.638;-115.438;2023-03-21T14:01:01;10.05;;;2.65;;
61104;SDS011;46987;32.638;-115.438;2023-03-21T14:03:29;7.68;;;2.65;;
61104;SDS011;46987;32.638;-115.438;2023-03-21T14:05:58;12.85;;;2.80;;
61104;SDS011;46987;32.638;-115.438;2023-03-21T14:08:24;8.50;;;2.63;;
61104;SDS011;46987;32.638;-115.438;2023-03-21T14:10:54;8.65;;;2.40;;
61104;SDS011;46987;32.638;-115.438;2023-03-21T14:13:25;11.38;;;3.05;;
61104;SDS011;46987;32.638;-115.438;2023-03-21T14:15:52;11.20;;;2.63;;
61104;SDS011;46987;32.638;-115.438;2023-03-21T14:18:20;12.00;;;2.85;;
61104;SDS011;46987;32.638;-115.438;2023-03-21T14:20:51;13.38;;;2.58;;
61104;SDS011;46987;32.638;-115.438;2023-03-21T14:23:17;13.20;;;2.83;;
61104;SDS011;46987;32.638;-115.438;2023-03-21T14:25:44;14.25;;;2.65;;
61104;SDS011;46987;32.638;-115.438;2023-03-21T14:28:15;11.45;;;2.60;;
61104;SDS011;46987;32.638;-115.438;2023-03-21T14:30:42;12.60;;;3.30;;
61104;SDS011;46987;32.638;-115.438;2023-03-21T14:33:11;13.95;;;3.10;;
61104;SDS011;46987;32.638;-115.438;2023-03-21T14:35:39;9.80;;;2.90;;
61104;SDS011;46987;32.638;-115.438;2023-03-21T14:38:07;10.32;;;3.03;;
61104;SDS011;46987;32.638;-115.438;2023-03-21T14:40:34;10.63;;;2.80;;
61104;SDS011;46987;32.638;-115.438;2023-03-21T14:43:03;15.20;;;3.60;;
61104;SDS011;46987;32.638;-115.438;2023-03-21T14:45:33;10.23;;;3.22;;
61104;SDS011;46987;32.638;-115.438;2023-03-21T14:48:00;10.88;;;2.78;;